Startseite

 
Links
   Guestbook

http://myblog.de/langen-radar

Gratis bloggen bei
myblog.de





 
Shoppen in Köln

Information Delta recorded 262053Z

EDDK 261920Z 08001KT CAVOK M02/M02 Q1034 NOSIG

Shoppen bei Minus2° in Köln... Olé!

Erst mit Carsten zu Mediamarkt, EXPO-Laden, Nanu Nana und Weihnachtsmarkt am Dom - Weihnachtsgeschenke für die Lieben zuhause kaufen.

Dann noch feine Schühchen bei Roland gekauft. Ging zum Glück was flotter diesmal: 1.Paar anprobiert. Andere Größe geholt. Nochmal Anprobiert. Passt. Bezahlt. Gegangen. Fertig.

Um ca. 1530h Chris, Micha und Flo getroffen. Carsten fuhr wieder nach Haus. Mit C., M. & F. dann nochmal die ganze gleiche Tour ohne Mediamarkt und Nanu Nana. Anschließend Irrfahrt mit Flo's Ford durch Köln. Blödes Navi wo ist Köln-Marsdorf? Wir habens dann doch noch gefunden. Conrad Electronic -> Flugfunkscanner FR-100 kaufen. Da realisierte ich plötzlich an der Kasse, dass ich im Portemonaie nahezu pleite bin. =) Zuviel Weihnachtsgeschenke gekauft. Nja. Aber Weihnachten gibt's ja zum Glück auch Geldgeschenke...

Um 2010h endlich mit 5 Plastiktüten @ Home. Nach gut 9Std. Power-Christmas-Shopping!

Information Delta out.

Morgen: Weihnachten

26.12.06 20:55
 



Verantwortlich für die Inhalte ist der Autor. Dein kostenloses Blog bei myblog.de! Datenschutzerklärung
Werbung